Eggebek, Germany

7:52 AM CEST on September 17, 2014 (GMT +0200)
Schlaumeier | Change Station
CLOSE
Current Station
Personal Weather Station
Location: Jörl, SCHLESWIG-HOLSTEIN
Elevation: 56 ft
Nearby Weather Stations

Elev 56 ft 54.61 °N, 9.27 °E | Updated 15 seconds ago

Partly Cloudy
Partly Cloudy
59.0 °F
Feels Like 59.0 °F
N
0.0
Wind Variable Wind from NW
Gusts 0.0 mph

Today
High -- | Low -- °F
--% Chance of Precip.
Yesterday
High -- | Low -- °F
Precip. -- in
6:58 AM 7:34 PM
Last Quarter, 39% visible
Pressure 30.06 in
Visibility 5.6 miles
Clouds Few 10000 ft
Dew Point 58 °F
Humidity 96%
Rainfall 0.00 in
Snow Depth Not available.
UV 1.0 out of 12
Pollen Not available.
Air Quality Not available.
Flu Activity Not available.
METAR ETNS 170520Z 07006KT 9000 FEW100 15/14 Q1018 BLU+BLU+

More Conditions Fewer Conditions

Pressure 30.06 in
Visibility 5.6 miles
Clouds Few 10000 ft
Dew Point 58 °F
Humidity 96%
Rainfall 0.00 in
Snow Depth Not available.
UV 1.0 out of 12
Pollen Not available.
Air Quality Not available.
Flu Activity Not available.
METAR ETNS 170520Z 07006KT 9000 FEW100 15/14 Q1018 BLU+BLU+

More Conditions Fewer Conditions

10-Day Weather Forecast

Almanac

Astronomy

Sep. 17, 2014 Rise Set
Actual Time 6:58 AM CEST 7:34 PM CEST
Civil Twilight 6:22 AM CEST 8:10 PM CEST
Nautical Twilight 5:38 AM CEST 8:53 PM CEST
Astronomical Twilight 4:52 AM CEST 9:40 PM CEST
Moon 12:02 AM CEST 4:12 PM CEST
Length of Visible Light 13h 48m
Length of Day
12h 36m
Tomorrow will be 4m 24s shorter.
Last Quarter, 39% of the Moon is Illuminated
Today
Last Quarter
Sep 24
New
Oct 1
First Quarter
Oct 8
Full
Oct 15
Last Quarter

Yesterday's Extremes

Country Highs Country Lows

Community

WunderPhotos

Upload Photos

1,753,968 photos uploaded!

Nearby

Snow Depth

Not available.

Earthquake Activity

City Distance Mag. Time & Date
No recent earthquake activity has been reported nearby.
Minimum magnitude displayed is 2.5.

Coastal Water Temperatures

Place Temperature
No Stations Reporting

Nearby Weather Stations